sensor_id;sensor_type;location;lat;lon;timestamp;P1;durP1;ratioP1;P2;durP2;ratioP2
53269;SDS011;39159;45.634;9.420;2022-12-20T00:01:50;60.72;;;33.38;;
53269;SDS011;39159;45.634;9.420;2022-12-20T00:04:15;62.58;;;33.72;;
53269;SDS011;39159;45.634;9.420;2022-12-20T00:06:41;61.63;;;32.85;;
53269;SDS011;39159;45.634;9.420;2022-12-20T00:09:06;59.30;;;32.55;;
53269;SDS011;39159;45.634;9.420;2022-12-20T00:11:33;56.55;;;31.38;;
53269;SDS011;39159;45.634;9.420;2022-12-20T00:13:58;63.50;;;32.50;;
53269;SDS011;39159;45.634;9.420;2022-12-20T00:16:25;59.90;;;32.53;;
53269;SDS011;39159;45.634;9.420;2022-12-20T00:18:52;62.85;;;31.70;;
53269;SDS011;39159;45.634;9.420;2022-12-20T00:21:20;60.33;;;32.15;;
53269;SDS011;39159;45.634;9.420;2022-12-20T00:23:46;56.95;;;31.13;;
53269;SDS011;39159;45.634;9.420;2022-12-20T00:26:13;66.95;;;34.75;;
53269;SDS011;39159;45.634;9.420;2022-12-20T00:28:40;58.55;;;31.45;;
53269;SDS011;39159;45.634;9.420;2022-12-20T00:31:10;57.75;;;31.55;;
53269;SDS011;39159;45.634;9.420;2022-12-20T00:33:37;68.72;;;35.35;;
53269;SDS011;39159;45.634;9.420;2022-12-20T00:36:04;67.43;;;36.17;;
53269;SDS011;39159;45.634;9.420;2022-12-20T00:38:31;63.53;;;34.50;;
53269;SDS011;39159;45.634;9.420;2022-12-20T00:41:04;67.47;;;33.58;;
53269;SDS011;39159;45.634;9.420;2022-12-20T00:43:31;64.97;;;33.63;;
53269;SDS011;39159;45.634;9.420;2022-12-20T00:45:58;57.38;;;31.58;;
53269;SDS011;39159;45.634;9.420;2022-12-20T00:48:24;63.28;;;32.95;;
53269;SDS011;39159;45.634;9.420;2022-12-20T00:50:50;70.15;;;34.85;;
53269;SDS011;39159;45.634;9.420;2022-12-20T00:53:16;68.93;;;33.42;;
53269;SDS011;39159;45.634;9.420;2022-12-20T00:55:43;66.32;;;34.25;;
53269;SDS011;39159;45.634;9.420;2022-12-20T00:58:10;66.22;;;34.30;;
53269;SDS011;39159;45.634;9.420;2022-12-20T01:00:36;61.38;;;31.42;;
53269;SDS011;39159;45.634;9.420;2022-12-20T01:03:03;65.25;;;35.40;;
53269;SDS011;39159;45.634;9.420;2022-12-20T01:05:29;65.65;;;33.20;;
53269;SDS011;39159;45.634;9.420;2022-12-20T01:07:55;62.20;;;32.50;;
53269;SDS011;39159;45.634;9.420;2022-12-20T01:10:20;62.05;;;33.33;;
53269;SDS011;39159;45.634;9.420;2022-12-20T01:12:46;59.15;;;30.83;;
53269;SDS011;39159;45.634;9.420;2022-12-20T01:15:11;58.60;;;29.45;;
53269;SDS011;39159;45.634;9.420;2022-12-20T01:17:37;61.00;;;32.92;;
53269;SDS011;39159;45.634;9.420;2022-12-20T01:20:03;60.63;;;32.95;;
53269;SDS011;39159;45.634;9.420;2022-12-20T01:22:29;63.17;;;33.50;;
53269;SDS011;39159;45.634;9.420;2022-12-20T01:24:55;61.10;;;33.65;;
53269;SDS011;39159;45.634;9.420;2022-12-20T01:27:20;68.47;;;34.42;;
53269;SDS011;39159;45.634;9.420;2022-12-20T01:29:46;68.28;;;34.45;;
53269;SDS011;39159;45.634;9.420;2022-12-20T01:32:11;60.75;;;32.28;;
53269;SDS011;39159;45.634;9.420;2022-12-20T01:34:37;64.80;;;33.13;;
53269;SDS011;39159;45.634;9.420;2022-12-20T01:37:02;67.32;;;33.92;;
53269;SDS011;39159;45.634;9.420;2022-12-20T01:39:27;58.58;;;32.10;;
53269;SDS011;39159;45.634;9.420;2022-12-20T01:41:53;65.65;;;34.40;;
53269;SDS011;39159;45.634;9.420;2022-12-20T01:46:44;64.20;;;32.67;;
53269;SDS011;39159;45.634;9.420;2022-12-20T01:49:33;59.63;;;32.05;;
53269;SDS011;39159;45.634;9.420;2022-12-20T01:52:01;64.15;;;32.17;;
53269;SDS011;39159;45.634;9.420;2022-12-20T01:57:10;64.72;;;33.17;;
53269;SDS011;39159;45.634;9.420;2022-12-20T01:59:39;64.85;;;33.15;;
53269;SDS011;39159;45.634;9.420;2022-12-20T02:02:08;62.85;;;32.08;;
53269;SDS011;39159;45.634;9.420;2022-12-20T02:04:36;74.50;;;36.10;;
53269;SDS011;39159;45.634;9.420;2022-12-20T02:07:02;61.90;;;31.73;;
53269;SDS011;39159;45.634;9.420;2022-12-20T02:09:31;68.88;;;34.40;;
53269;SDS011;39159;45.634;9.420;2022-12-20T02:14:49;59.58;;;31.83;;
53269;SDS011;39159;45.634;9.420;2022-12-20T02:31:51;60.45;;;31.85;;
53269;SDS011;39159;45.634;9.420;2022-12-20T02:34:24;63.53;;;32.83;;
53269;SDS011;39159;45.634;9.420;2022-12-20T02:36:51;69.85;;;34.17;;
53269;SDS011;39159;45.634;9.420;2022-12-20T02:39:17;62.70;;;33.03;;
53269;SDS011;39159;45.634;9.420;2022-12-20T02:41:43;61.22;;;32.72;;
53269;SDS011;39159;45.634;9.420;2022-12-20T02:44:14;71.83;;;36.50;;
53269;SDS011;39159;45.634;9.420;2022-12-20T02:47:02;66.10;;;33.78;;
53269;SDS011;39159;45.634;9.420;2022-12-20T02:49:31;65.72;;;33.50;;
53269;SDS011;39159;45.634;9.420;2022-12-20T02:52:02;63.85;;;32.97;;
53269;SDS011;39159;45.634;9.420;2022-12-20T02:54:30;61.95;;;32.35;;
53269;SDS011;39159;45.634;9.420;2022-12-20T02:56:59;64.50;;;33.72;;
53269;SDS011;39159;45.634;9.420;2022-12-20T03:00:16;63.35;;;33.22;;
53269;SDS011;39159;45.634;9.420;2022-12-20T03:02:28;64.97;;;32.80;;
53269;SDS011;39159;45.634;9.420;2022-12-20T03:05:14;61.42;;;30.73;;
53269;SDS011;39159;45.634;9.420;2022-12-20T03:07:40;64.47;;;33.35;;
53269;SDS011;39159;45.634;9.420;2022-12-20T03:10:06;64.60;;;32.42;;
53269;SDS011;39159;45.634;9.420;2022-12-20T03:12:32;61.33;;;33.55;;
53269;SDS011;39159;45.634;9.420;2022-12-20T03:14:57;64.07;;;33.30;;
53269;SDS011;39159;45.634;9.420;2022-12-20T03:17:22;64.45;;;33.58;;
53269;SDS011;39159;45.634;9.420;2022-12-20T03:19:48;56.38;;;32.50;;
53269;SDS011;39159;45.634;9.420;2022-12-20T03:22:13;64.38;;;34.33;;
53269;SDS011;39159;45.634;9.420;2022-12-20T03:24:39;65.32;;;34.80;;
53269;SDS011;39159;45.634;9.420;2022-12-20T03:27:05;65.78;;;35.00;;
53269;SDS011;39159;45.634;9.420;2022-12-20T03:29:30;71.00;;;36.78;;
53269;SDS011;39159;45.634;9.420;2022-12-20T03:31:55;64.85;;;35.78;;
53269;SDS011;39159;45.634;9.420;2022-12-20T03:34:21;71.93;;;36.42;;
53269;SDS011;39159;45.634;9.420;2022-12-20T03:36:46;72.85;;;37.53;;
53269;SDS011;39159;45.634;9.420;2022-12-20T03:39:12;76.03;;;38.83;;
53269;SDS011;39159;45.634;9.420;2022-12-20T03:41:37;73.65;;;39.03;;
53269;SDS011;39159;45.634;9.420;2022-12-20T03:44:03;70.53;;;36.53;;
53269;SDS011;39159;45.634;9.420;2022-12-20T03:46:29;69.40;;;36.47;;
53269;SDS011;39159;45.634;9.420;2022-12-20T03:48:54;68.28;;;36.53;;
53269;SDS011;39159;45.634;9.420;2022-12-20T03:51:20;72.93;;;37.63;;
53269;SDS011;39159;45.634;9.420;2022-12-20T03:53:45;70.97;;;36.08;;
53269;SDS011;39159;45.634;9.420;2022-12-20T03:56:10;65.57;;;34.58;;
53269;SDS011;39159;45.634;9.420;2022-12-20T03:58:36;75.90;;;37.35;;
53269;SDS011;39159;45.634;9.420;2022-12-20T04:01:01;68.43;;;38.00;;
53269;SDS011;39159;45.634;9.420;2022-12-20T04:03:39;68.78;;;36.47;;
53269;SDS011;39159;45.634;9.420;2022-12-20T04:06:05;66.90;;;34.90;;
53269;SDS011;39159;45.634;9.420;2022-12-20T04:08:30;68.78;;;34.85;;
53269;SDS011;39159;45.634;9.420;2022-12-20T04:10:56;74.13;;;35.28;;
53269;SDS011;39159;45.634;9.420;2022-12-20T04:13:39;72.70;;;35.65;;
53269;SDS011;39159;45.634;9.420;2022-12-20T04:16:05;65.93;;;33.47;;
53269;SDS011;39159;45.634;9.420;2022-12-20T04:18:31;69.57;;;34.35;;
53269;SDS011;39159;45.634;9.420;2022-12-20T04:20:58;65.78;;;33.72;;
53269;SDS011;39159;45.634;9.420;2022-12-20T04:23:24;63.08;;;32.53;;
53269;SDS011;39159;45.634;9.420;2022-12-20T04:25:50;64.22;;;32.90;;
53269;SDS011;39159;45.634;9.420;2022-12-20T04:28:15;69.30;;;34.90;;
53269;SDS011;39159;45.634;9.420;2022-12-20T04:30:41;71.25;;;35.28;;
53269;SDS011;39159;45.634;9.420;2022-12-20T04:33:06;65.47;;;34.47;;
53269;SDS011;39159;45.634;9.420;2022-12-20T04:35:31;63.78;;;32.28;;
53269;SDS011;39159;45.634;9.420;2022-12-20T04:37:57;71.28;;;36.20;;
53269;SDS011;39159;45.634;9.420;2022-12-20T04:40:22;63.38;;;32.60;;
53269;SDS011;39159;45.634;9.420;2022-12-20T04:42:48;64.00;;;32.33;;
53269;SDS011;39159;45.634;9.420;2022-12-20T04:45:13;61.45;;;32.42;;
53269;SDS011;39159;45.634;9.420;2022-12-20T04:47:38;60.00;;;32.78;;
53269;SDS011;39159;45.634;9.420;2022-12-20T04:50:05;62.55;;;31.30;;
53269;SDS011;39159;45.634;9.420;2022-12-20T04:52:31;61.60;;;32.97;;
53269;SDS011;39159;45.634;9.420;2022-12-20T04:55:15;59.13;;;32.00;;
53269;SDS011;39159;45.634;9.420;2022-12-20T04:57:41;54.55;;;30.80;;
53269;SDS011;39159;45.634;9.420;2022-12-20T05:00:06;59.65;;;32.97;;
53269;SDS011;39159;45.634;9.420;2022-12-20T05:02:32;62.78;;;31.88;;
53269;SDS011;39159;45.634;9.420;2022-12-20T05:04:58;60.30;;;31.77;;
53269;SDS011;39159;45.634;9.420;2022-12-20T05:07:23;66.78;;;34.85;;
53269;SDS011;39159;45.634;9.420;2022-12-20T05:09:48;62.33;;;33.45;;
53269;SDS011;39159;45.634;9.420;2022-12-20T05:12:14;58.20;;;30.70;;
53269;SDS011;39159;45.634;9.420;2022-12-20T05:14:39;60.55;;;31.58;;
53269;SDS011;39159;45.634;9.420;2022-12-20T05:17:05;63.97;;;34.28;;
53269;SDS011;39159;45.634;9.420;2022-12-20T05:19:30;60.78;;;33.55;;
53269;SDS011;39159;45.634;9.420;2022-12-20T05:21:55;60.15;;;31.75;;
53269;SDS011;39159;45.634;9.420;2022-12-20T05:24:44;59.17;;;31.58;;
53269;SDS011;39159;45.634;9.420;2022-12-20T05:27:28;62.45;;;32.97;;
53269;SDS011;39159;45.634;9.420;2022-12-20T05:29:54;57.35;;;30.50;;
53269;SDS011;39159;45.634;9.420;2022-12-20T05:32:19;56.22;;;31.77;;
53269;SDS011;39159;45.634;9.420;2022-12-20T05:34:45;56.83;;;31.70;;
53269;SDS011;39159;45.634;9.420;2022-12-20T05:37:10;61.63;;;33.58;;
53269;SDS011;39159;45.634;9.420;2022-12-20T05:39:36;62.53;;;33.20;;
53269;SDS011;39159;45.634;9.420;2022-12-20T05:42:01;56.47;;;32.33;;
53269;SDS011;39159;45.634;9.420;2022-12-20T05:44:27;60.25;;;32.28;;
53269;SDS011;39159;45.634;9.420;2022-12-20T05:46:52;59.10;;;31.10;;
53269;SDS011;39159;45.634;9.420;2022-12-20T05:49:18;59.25;;;33.55;;
53269;SDS011;39159;45.634;9.420;2022-12-20T05:51:43;62.50;;;33.58;;
53269;SDS011;39159;45.634;9.420;2022-12-20T05:54:08;63.20;;;33.97;;
53269;SDS011;39159;45.634;9.420;2022-12-20T05:56:35;60.83;;;33.67;;
53269;SDS011;39159;45.634;9.420;2022-12-20T05:59:00;60.67;;;31.58;;
53269;SDS011;39159;45.634;9.420;2022-12-20T06:01:26;60.97;;;33.53;;
53269;SDS011;39159;45.634;9.420;2022-12-20T06:03:51;60.58;;;34.97;;
53269;SDS011;39159;45.634;9.420;2022-12-20T06:06:17;58.85;;;32.58;;
53269;SDS011;39159;45.634;9.420;2022-12-20T06:08:42;59.25;;;32.92;;
53269;SDS011;39159;45.634;9.420;2022-12-20T06:11:08;61.15;;;33.90;;
53269;SDS011;39159;45.634;9.420;2022-12-20T06:13:33;65.18;;;32.63;;
53269;SDS011;39159;45.634;9.420;2022-12-20T06:15:59;61.95;;;33.42;;
53269;SDS011;39159;45.634;9.420;2022-12-20T06:18:24;67.65;;;35.08;;
53269;SDS011;39159;45.634;9.420;2022-12-20T06:20:51;63.30;;;34.72;;
53269;SDS011;39159;45.634;9.420;2022-12-20T06:23:17;63.80;;;35.45;;
53269;SDS011;39159;45.634;9.420;2022-12-20T06:25:44;66.63;;;35.90;;
53269;SDS011;39159;45.634;9.420;2022-12-20T06:28:10;61.33;;;34.20;;
53269;SDS011;39159;45.634;9.420;2022-12-20T06:30:36;66.55;;;36.45;;
53269;SDS011;39159;45.634;9.420;2022-12-20T06:33:01;63.92;;;34.33;;
53269;SDS011;39159;45.634;9.420;2022-12-20T06:35:28;64.57;;;34.13;;
53269;SDS011;39159;45.634;9.420;2022-12-20T06:37:54;67.65;;;34.60;;
53269;SDS011;39159;45.634;9.420;2022-12-20T06:40:20;59.80;;;32.65;;
53269;SDS011;39159;45.634;9.420;2022-12-20T06:42:46;63.33;;;34.50;;
53269;SDS011;39159;45.634;9.420;2022-12-20T06:45:11;64.53;;;36.30;;
53269;SDS011;39159;45.634;9.420;2022-12-20T06:47:37;69.32;;;37.58;;
53269;SDS011;39159;45.634;9.420;2022-12-20T06:50:03;67.03;;;36.58;;
53269;SDS011;39159;45.634;9.420;2022-12-20T06:52:29;65.95;;;35.38;;
53269;SDS011;39159;45.634;9.420;2022-12-20T06:54:55;67.63;;;36.30;;
53269;SDS011;39159;45.634;9.420;2022-12-20T06:57:20;63.90;;;35.95;;
53269;SDS011;39159;45.634;9.420;2022-12-20T06:59:46;64.82;;;33.90;;
53269;SDS011;39159;45.634;9.420;2022-12-20T07:02:11;69.15;;;36.13;;
53269;SDS011;39159;45.634;9.420;2022-12-20T07:04:37;66.28;;;34.78;;
53269;SDS011;39159;45.634;9.420;2022-12-20T07:07:03;61.47;;;35.80;;
53269;SDS011;39159;45.634;9.420;2022-12-20T07:09:29;62.90;;;35.20;;
53269;SDS011;39159;45.634;9.420;2022-12-20T07:11:55;62.35;;;34.67;;
53269;SDS011;39159;45.634;9.420;2022-12-20T07:14:21;60.10;;;33.20;;
53269;SDS011;39159;45.634;9.420;2022-12-20T07:16:46;63.65;;;33.80;;
53269;SDS011;39159;45.634;9.420;2022-12-20T07:19:12;76.75;;;38.97;;
53269;SDS011;39159;45.634;9.420;2022-12-20T07:21:38;71.90;;;36.00;;
53269;SDS011;39159;45.634;9.420;2022-12-20T07:24:04;63.33;;;35.20;;
53269;SDS011;39159;45.634;9.420;2022-12-20T07:26:30;64.50;;;35.22;;
53269;SDS011;39159;45.634;9.420;2022-12-20T07:28:56;62.65;;;36.08;;
53269;SDS011;39159;45.634;9.420;2022-12-20T07:31:21;69.20;;;36.53;;
53269;SDS011;39159;45.634;9.420;2022-12-20T07:33:47;66.15;;;34.13;;
53269;SDS011;39159;45.634;9.420;2022-12-20T07:36:12;63.03;;;35.15;;
53269;SDS011;39159;45.634;9.420;2022-12-20T07:38:40;66.75;;;36.42;;
53269;SDS011;39159;45.634;9.420;2022-12-20T07:41:12;58.92;;;34.33;;
53269;SDS011;39159;45.634;9.420;2022-12-20T07:43:40;60.70;;;33.67;;
53269;SDS011;39159;45.634;9.420;2022-12-20T07:46:06;64.93;;;36.50;;
53269;SDS011;39159;45.634;9.420;2022-12-20T07:48:32;55.53;;;31.05;;
53269;SDS011;39159;45.634;9.420;2022-12-20T07:50:59;52.55;;;30.35;;
53269;SDS011;39159;45.634;9.420;2022-12-20T07:53:53;55.47;;;32.90;;
53269;SDS011;39159;45.634;9.420;2022-12-20T07:56:22;55.05;;;30.92;;
53269;SDS011;39159;45.634;9.420;2022-12-20T07:58:50;59.45;;;33.40;;
53269;SDS011;39159;45.634;9.420;2022-12-20T08:03:48;55.97;;;31.58;;
53269;SDS011;39159;45.634;9.420;2022-12-20T08:06:17;57.58;;;32.45;;
53269;SDS011;39159;45.634;9.420;2022-12-20T08:08:44;60.10;;;33.70;;
53269;SDS011;39159;45.634;9.420;2022-12-20T08:11:13;56.58;;;32.95;;
53269;SDS011;39159;45.634;9.420;2022-12-20T08:13:39;60.70;;;33.20;;
53269;SDS011;39159;45.634;9.420;2022-12-20T08:16:05;60.85;;;33.83;;
53269;SDS011;39159;45.634;9.420;2022-12-20T08:18:31;59.92;;;33.58;;
53269;SDS011;39159;45.634;9.420;2022-12-20T08:20:57;63.88;;;36.22;;
53269;SDS011;39159;45.634;9.420;2022-12-20T08:23:22;63.50;;;35.95;;
53269;SDS011;39159;45.634;9.420;2022-12-20T08:25:48;63.55;;;35.50;;
53269;SDS011;39159;45.634;9.420;2022-12-20T08:28:14;65.90;;;34.92;;
53269;SDS011;39159;45.634;9.420;2022-12-20T08:30:39;57.35;;;33.50;;
53269;SDS011;39159;45.634;9.420;2022-12-20T08:33:05;68.53;;;35.75;;
53269;SDS011;39159;45.634;9.420;2022-12-20T08:35:30;62.35;;;34.92;;
53269;SDS011;39159;45.634;9.420;2022-12-20T08:37:56;64.03;;;35.65;;
53269;SDS011;39159;45.634;9.420;2022-12-20T08:40:21;64.53;;;36.30;;
53269;SDS011;39159;45.634;9.420;2022-12-20T08:42:47;71.00;;;37.95;;
53269;SDS011;39159;45.634;9.420;2022-12-20T08:45:12;65.10;;;37.33;;
53269;SDS011;39159;45.634;9.420;2022-12-20T08:47:38;66.65;;;36.97;;
53269;SDS011;39159;45.634;9.420;2022-12-20T08:50:03;64.13;;;35.25;;
53269;SDS011;39159;45.634;9.420;2022-12-20T08:52:30;64.28;;;35.67;;
53269;SDS011;39159;45.634;9.420;2022-12-20T08:54:55;64.55;;;36.20;;
53269;SDS011;39159;45.634;9.420;2022-12-20T08:57:21;66.38;;;35.28;;
53269;SDS011;39159;45.634;9.420;2022-12-20T08:59:46;59.92;;;34.28;;
53269;SDS011;39159;45.634;9.420;2022-12-20T09:02:12;62.20;;;34.22;;
53269;SDS011;39159;45.634;9.420;2022-12-20T09:04:37;59.33;;;33.95;;
53269;SDS011;39159;45.634;9.420;2022-12-20T09:07:03;67.60;;;35.90;;
53269;SDS011;39159;45.634;9.420;2022-12-20T09:09:28;68.75;;;36.20;;
53269;SDS011;39159;45.634;9.420;2022-12-20T09:11:54;62.53;;;35.50;;
53269;SDS011;39159;45.634;9.420;2022-12-20T09:14:20;74.22;;;39.28;;
53269;SDS011;39159;45.634;9.420;2022-12-20T09:16:45;69.03;;;38.00;;
53269;SDS011;39159;45.634;9.420;2022-12-20T09:19:11;68.78;;;38.15;;
53269;SDS011;39159;45.634;9.420;2022-12-20T09:21:38;65.70;;;38.72;;
53269;SDS011;39159;45.634;9.420;2022-12-20T09:24:04;70.18;;;39.30;;
53269;SDS011;39159;45.634;9.420;2022-12-20T09:26:30;70.38;;;39.38;;
53269;SDS011;39159;45.634;9.420;2022-12-20T09:28:56;64.22;;;35.88;;
53269;SDS011;39159;45.634;9.420;2022-12-20T09:31:24;63.60;;;35.30;;
53269;SDS011;39159;45.634;9.420;2022-12-20T09:33:54;62.10;;;35.05;;
53269;SDS011;39159;45.634;9.420;2022-12-20T09:36:22;61.35;;;34.58;;
53269;SDS011;39159;45.634;9.420;2022-12-20T09:38:48;63.72;;;35.88;;
53269;SDS011;39159;45.634;9.420;2022-12-20T09:41:19;62.15;;;36.50;;
53269;SDS011;39159;45.634;9.420;2022-12-20T09:43:59;59.33;;;34.25;;
53269;SDS011;39159;45.634;9.420;2022-12-20T09:46:28;64.53;;;35.10;;
53269;SDS011;39159;45.634;9.420;2022-12-20T09:48:54;64.97;;;36.92;;
53269;SDS011;39159;45.634;9.420;2022-12-20T10:11:57;64.30;;;40.47;;
53269;SDS011;39159;45.634;9.420;2022-12-20T10:17:04;66.30;;;37.90;;
53269;SDS011;39159;45.634;9.420;2022-12-20T10:22:15;66.25;;;38.17;;
53269;SDS011;39159;45.634;9.420;2022-12-20T10:24:48;60.75;;;36.15;;
53269;SDS011;39159;45.634;9.420;2022-12-20T10:27:20;64.70;;;36.30;;
53269;SDS011;39159;45.634;9.420;2022-12-20T10:29:47;62.30;;;36.70;;
53269;SDS011;39159;45.634;9.420;2022-12-20T10:32:16;63.65;;;36.60;;
53269;SDS011;39159;45.634;9.420;2022-12-20T10:37:36;62.90;;;35.15;;
53269;SDS011;39159;45.634;9.420;2022-12-20T10:40:02;63.97;;;36.47;;
53269;SDS011;39159;45.634;9.420;2022-12-20T10:45:26;66.03;;;37.35;;
53269;SDS011;39159;45.634;9.420;2022-12-20T10:47:59;60.17;;;34.22;;
53269;SDS011;39159;45.634;9.420;2022-12-20T10:50:25;60.08;;;35.08;;
53269;SDS011;39159;45.634;9.420;2022-12-20T10:55:36;65.32;;;37.15;;
53269;SDS011;39159;45.634;9.420;2022-12-20T10:58:49;57.72;;;34.97;;
53269;SDS011;39159;45.634;9.420;2022-12-20T11:00:57;57.65;;;32.90;;
53269;SDS011;39159;45.634;9.420;2022-12-20T11:03:48;64.93;;;35.72;;
53269;SDS011;39159;45.634;9.420;2022-12-20T11:06:22;64.38;;;37.45;;
53269;SDS011;39159;45.634;9.420;2022-12-20T11:08:52;58.40;;;34.63;;
53269;SDS011;39159;45.634;9.420;2022-12-20T11:13:43;64.97;;;38.10;;
53269;SDS011;39159;45.634;9.420;2022-12-20T11:16:23;64.85;;;37.17;;
53269;SDS011;39159;45.634;9.420;2022-12-20T11:29:47;58.40;;;33.70;;
53269;SDS011;39159;45.634;9.420;2022-12-20T11:32:55;56.67;;;33.83;;
53269;SDS011;39159;45.634;9.420;2022-12-20T11:35:31;50.58;;;31.80;;
53269;SDS011;39159;45.634;9.420;2022-12-20T11:38:06;53.13;;;31.65;;
53269;SDS011;39159;45.634;9.420;2022-12-20T11:40:37;52.20;;;31.98;;
53269;SDS011;39159;45.634;9.420;2022-12-20T11:43:21;55.55;;;32.22;;
53269;SDS011;39159;45.634;9.420;2022-12-20T11:46:03;53.55;;;32.05;;
53269;SDS011;39159;45.634;9.420;2022-12-20T11:51:45;56.40;;;33.80;;
53269;SDS011;39159;45.634;9.420;2022-12-20T11:54:22;54.47;;;34.53;;
53269;SDS011;39159;45.634;9.420;2022-12-20T11:56:54;56.97;;;33.03;;
53269;SDS011;39159;45.634;9.420;2022-12-20T11:59:36;59.20;;;33.80;;
53269;SDS011;39159;45.634;9.420;2022-12-20T12:02:12;54.05;;;33.05;;
53269;SDS011;39159;45.634;9.420;2022-12-20T12:05:03;51.17;;;32.03;;
53269;SDS011;39159;45.634;9.420;2022-12-20T12:07:31;55.60;;;33.50;;
53269;SDS011;39159;45.634;9.420;2022-12-20T12:10:02;51.28;;;32.40;;
53269;SDS011;39159;45.634;9.420;2022-12-20T12:12:51;51.78;;;32.75;;
53269;SDS011;39159;45.634;9.420;2022-12-20T12:15:27;52.58;;;31.90;;
53269;SDS011;39159;45.634;9.420;2022-12-20T12:18:02;55.58;;;33.20;;
53269;SDS011;39159;45.634;9.420;2022-12-20T12:23:38;54.28;;;32.08;;
53269;SDS011;39159;45.634;9.420;2022-12-20T12:26:23;53.85;;;31.83;;
53269;SDS011;39159;45.634;9.420;2022-12-20T12:28:52;55.17;;;33.25;;
53269;SDS011;39159;45.634;9.420;2022-12-20T12:31:49;50.00;;;30.80;;
53269;SDS011;39159;45.634;9.420;2022-12-20T12:44:56;52.40;;;32.38;;
53269;SDS011;39159;45.634;9.420;2022-12-20T12:47:42;49.85;;;31.60;;
53269;SDS011;39159;45.634;9.420;2022-12-20T12:50:20;52.85;;;32.45;;
53269;SDS011;39159;45.634;9.420;2022-12-20T12:52:54;54.58;;;31.98;;
53269;SDS011;39159;45.634;9.420;2022-12-20T12:58:21;54.63;;;31.80;;
53269;SDS011;39159;45.634;9.420;2022-12-20T13:03:45;54.33;;;31.77;;
53269;SDS011;39159;45.634;9.420;2022-12-20T13:16:52;46.10;;;29.27;;
53269;SDS011;39159;45.634;9.420;2022-12-20T13:21:54;42.75;;;27.10;;
53269;SDS011;39159;45.634;9.420;2022-12-20T13:27:02;47.55;;;28.17;;
53269;SDS011;39159;45.634;9.420;2022-12-20T13:29:50;48.25;;;28.40;;
53269;SDS011;39159;45.634;9.420;2022-12-20T13:40:24;46.35;;;28.20;;
53269;SDS011;39159;45.634;9.420;2022-12-20T13:43:09;46.92;;;29.95;;
53269;SDS011;39159;45.634;9.420;2022-12-20T13:45:40;48.10;;;30.13;;
53269;SDS011;39159;45.634;9.420;2022-12-20T13:48:11;53.22;;;31.58;;
53269;SDS011;39159;45.634;9.420;2022-12-20T13:50:46;48.78;;;29.70;;
53269;SDS011;39159;45.634;9.420;2022-12-20T13:53:15;49.30;;;29.55;;
53269;SDS011;39159;45.634;9.420;2022-12-20T13:55:43;44.75;;;27.65;;
53269;SDS011;39159;45.634;9.420;2022-12-20T13:58:13;50.03;;;32.35;;
53269;SDS011;39159;45.634;9.420;2022-12-20T14:00:42;46.00;;;29.67;;
53269;SDS011;39159;45.634;9.420;2022-12-20T14:03:18;49.95;;;30.13;;
53269;SDS011;39159;45.634;9.420;2022-12-20T14:05:46;48.90;;;29.90;;
53269;SDS011;39159;45.634;9.420;2022-12-20T14:08:14;49.55;;;30.75;;
53269;SDS011;39159;45.634;9.420;2022-12-20T14:10:41;48.65;;;31.00;;
53269;SDS011;39159;45.634;9.420;2022-12-20T14:13:23;43.30;;;29.33;;
53269;SDS011;39159;45.634;9.420;2022-12-20T14:15:51;49.92;;;29.98;;
53269;SDS011;39159;45.634;9.420;2022-12-20T14:18:21;43.22;;;28.40;;
53269;SDS011;39159;45.634;9.420;2022-12-20T14:23:42;45.50;;;29.85;;
53269;SDS011;39159;45.634;9.420;2022-12-20T14:26:12;43.75;;;28.92;;
53269;SDS011;39159;45.634;9.420;2022-12-20T14:28:43;47.38;;;29.30;;
53269;SDS011;39159;45.634;9.420;2022-12-20T14:33:50;48.10;;;29.52;;
53269;SDS011;39159;45.634;9.420;2022-12-20T14:38:45;45.70;;;30.10;;
53269;SDS011;39159;45.634;9.420;2022-12-20T14:44:20;44.88;;;30.45;;
53269;SDS011;39159;45.634;9.420;2022-12-20T14:46:48;46.47;;;30.42;;
53269;SDS011;39159;45.634;9.420;2022-12-20T14:51:46;46.13;;;29.83;;
53269;SDS011;39159;45.634;9.420;2022-12-20T14:54:30;50.72;;;30.63;;
53269;SDS011;39159;45.634;9.420;2022-12-20T14:56:56;50.67;;;31.15;;
53269;SDS011;39159;45.634;9.420;2022-12-20T14:59:26;47.60;;;30.83;;
53269;SDS011;39159;45.634;9.420;2022-12-20T15:01:53;56.20;;;34.03;;
53269;SDS011;39159;45.634;9.420;2022-12-20T15:04:37;56.80;;;34.15;;
53269;SDS011;39159;45.634;9.420;2022-12-20T15:07:02;53.75;;;32.03;;
53269;SDS011;39159;45.634;9.420;2022-12-20T15:09:28;48.83;;;31.55;;
53269;SDS011;39159;45.634;9.420;2022-12-20T15:11:54;43.22;;;29.77;;
53269;SDS011;39159;45.634;9.420;2022-12-20T15:16:55;48.95;;;32.63;;
53269;SDS011;39159;45.634;9.420;2022-12-20T15:19:21;51.72;;;32.60;;
53269;SDS011;39159;45.634;9.420;2022-12-20T15:21:46;47.80;;;29.25;;
53269;SDS011;39159;45.634;9.420;2022-12-20T15:24:13;57.50;;;35.80;;
53269;SDS011;39159;45.634;9.420;2022-12-20T15:26:42;49.92;;;32.88;;
53269;SDS011;39159;45.634;9.420;2022-12-20T15:29:14;49.85;;;32.78;;
53269;SDS011;39159;45.634;9.420;2022-12-20T15:31:50;53.35;;;34.13;;
53269;SDS011;39159;45.634;9.420;2022-12-20T15:34:27;59.22;;;36.50;;
53269;SDS011;39159;45.634;9.420;2022-12-20T15:36:58;58.78;;;36.30;;
53269;SDS011;39159;45.634;9.420;2022-12-20T15:39:24;57.80;;;36.03;;
53269;SDS011;39159;45.634;9.420;2022-12-20T15:41:51;55.00;;;35.47;;
53269;SDS011;39159;45.634;9.420;2022-12-20T15:46:50;61.13;;;36.35;;
53269;SDS011;39159;45.634;9.420;2022-12-20T15:49:17;53.65;;;35.00;;
53269;SDS011;39159;45.634;9.420;2022-12-20T15:51:45;54.53;;;34.03;;
53269;SDS011;39159;45.634;9.420;2022-12-20T15:54:19;62.30;;;37.72;;
53269;SDS011;39159;45.634;9.420;2022-12-20T15:56:54;52.28;;;34.22;;
53269;SDS011;39159;45.634;9.420;2022-12-20T15:59:24;61.40;;;35.05;;
53269;SDS011;39159;45.634;9.420;2022-12-20T16:01:49;59.85;;;37.25;;
53269;SDS011;39159;45.634;9.420;2022-12-20T16:04:16;73.03;;;37.83;;
53269;SDS011;39159;45.634;9.420;2022-12-20T16:06:43;54.88;;;33.88;;
53269;SDS011;39159;45.634;9.420;2022-12-20T16:09:10;64.30;;;38.45;;
53269;SDS011;39159;45.634;9.420;2022-12-20T16:11:36;60.13;;;36.55;;
53269;SDS011;39159;45.634;9.420;2022-12-20T16:14:02;68.55;;;37.95;;
53269;SDS011;39159;45.634;9.420;2022-12-20T16:16:28;56.60;;;35.53;;
53269;SDS011;39159;45.634;9.420;2022-12-20T16:18:56;60.00;;;36.65;;
53269;SDS011;39159;45.634;9.420;2022-12-20T16:21:32;58.22;;;35.80;;
53269;SDS011;39159;45.634;9.420;2022-12-20T16:24:00;57.35;;;34.60;;
53269;SDS011;39159;45.634;9.420;2022-12-20T16:26:26;58.17;;;34.10;;
53269;SDS011;39159;45.634;9.420;2022-12-20T16:28:53;58.35;;;36.05;;
53269;SDS011;39159;45.634;9.420;2022-12-20T16:31:29;58.63;;;36.63;;
53269;SDS011;39159;45.634;9.420;2022-12-20T16:34:00;62.72;;;38.95;;
53269;SDS011;39159;45.634;9.420;2022-12-20T16:36:28;58.10;;;35.58;;
53269;SDS011;39159;45.634;9.420;2022-12-20T16:38:53;60.40;;;36.00;;
53269;SDS011;39159;45.634;9.420;2022-12-20T16:41:21;55.15;;;35.45;;
53269;SDS011;39159;45.634;9.420;2022-12-20T16:43:48;53.60;;;33.25;;
53269;SDS011;39159;45.634;9.420;2022-12-20T16:46:15;57.60;;;35.65;;
53269;SDS011;39159;45.634;9.420;2022-12-20T16:48:42;61.08;;;35.92;;